Terminal Aerodrome Forecast
Issued by NWS Charleston, WV

Current Version | Previous Version | Graphics & Text | Print | Product List | Glossary On
Versions: 1 2 3 4 5 6 7 8 9 10 11 12 13 14 15 16 17 18 19 20 21 22 23 24 25
509
FTUS41 KRLX 260539
TAFPKB
TAF
KPKB 260539Z 2606/2706 21005KT P6SM SCT090 WS010/30030KT
     FM261500 24010G17KT 5SM -SHRA VCTS BKN030CB
     FM261700 25011G18KT 5SM -SHRA VCTS BKN030CB
     FM262300 27007KT 3SM -SHRA VCTS BKN022CB=

USA.gov is the U.S. government's official web portal to all federal, state and local government web resources and services.